sensor_id;sensor_type;location;lat;lon;timestamp;P1;durP1;ratioP1;P2;durP2;ratioP2
30647;SDS011;17683;53.360;9.736;2024-01-25T00:01:12;50.28;;;8.25;;
30647;SDS011;17683;53.360;9.736;2024-01-25T00:03:38;42.30;;;8.48;;
30647;SDS011;17683;53.360;9.736;2024-01-25T00:06:04;42.58;;;9.15;;
30647;SDS011;17683;53.360;9.736;2024-01-25T00:08:30;44.25;;;9.88;;
30647;SDS011;17683;53.360;9.736;2024-01-25T00:10:56;46.15;;;7.43;;
30647;SDS011;17683;53.360;9.736;2024-01-25T00:13:22;40.92;;;9.05;;
30647;SDS011;17683;53.360;9.736;2024-01-25T00:15:48;47.35;;;8.60;;
30647;SDS011;17683;53.360;9.736;2024-01-25T00:18:13;36.33;;;7.60;;
30647;SDS011;17683;53.360;9.736;2024-01-25T00:20:39;56.25;;;8.40;;
30647;SDS011;17683;53.360;9.736;2024-01-25T00:23:05;38.97;;;8.38;;
30647;SDS011;17683;53.360;9.736;2024-01-25T00:25:31;38.60;;;7.57;;
30647;SDS011;17683;53.360;9.736;2024-01-25T00:27:57;45.97;;;7.47;;
30647;SDS011;17683;53.360;9.736;2024-01-25T00:30:23;40.03;;;7.90;;
30647;SDS011;17683;53.360;9.736;2024-01-25T00:32:48;51.95;;;9.40;;
30647;SDS011;17683;53.360;9.736;2024-01-25T00:35:14;49.72;;;7.90;;
30647;SDS011;17683;53.360;9.736;2024-01-25T00:37:41;51.17;;;7.80;;
30647;SDS011;17683;53.360;9.736;2024-01-25T00:40:07;47.65;;;8.57;;
30647;SDS011;17683;53.360;9.736;2024-01-25T00:42:35;56.08;;;9.20;;
30647;SDS011;17683;53.360;9.736;2024-01-25T00:45:06;45.25;;;8.35;;
30647;SDS011;17683;53.360;9.736;2024-01-25T00:47:32;40.95;;;8.95;;
30647;SDS011;17683;53.360;9.736;2024-01-25T00:49:58;40.40;;;8.65;;
30647;SDS011;17683;53.360;9.736;2024-01-25T00:52:24;52.78;;;8.13;;
30647;SDS011;17683;53.360;9.736;2024-01-25T00:54:50;47.95;;;7.60;;
30647;SDS011;17683;53.360;9.736;2024-01-25T00:57:16;39.92;;;8.45;;
30647;SDS011;17683;53.360;9.736;2024-01-25T00:59:42;40.08;;;7.78;;
30647;SDS011;17683;53.360;9.736;2024-01-25T01:02:11;44.83;;;7.55;;
30647;SDS011;17683;53.360;9.736;2024-01-25T01:04:38;37.13;;;7.18;;
30647;SDS011;17683;53.360;9.736;2024-01-25T01:07:04;46.00;;;7.75;;
30647;SDS011;17683;53.360;9.736;2024-01-25T01:09:30;40.15;;;7.32;;
30647;SDS011;17683;53.360;9.736;2024-01-25T01:11:56;42.90;;;8.93;;
30647;SDS011;17683;53.360;9.736;2024-01-25T01:14:22;42.08;;;7.18;;
30647;SDS011;17683;53.360;9.736;2024-01-25T01:16:47;55.08;;;8.45;;
30647;SDS011;17683;53.360;9.736;2024-01-25T01:19:15;41.85;;;7.32;;
30647;SDS011;17683;53.360;9.736;2024-01-25T01:21:41;46.25;;;9.25;;
30647;SDS011;17683;53.360;9.736;2024-01-25T01:24:09;47.55;;;7.88;;
30647;SDS011;17683;53.360;9.736;2024-01-25T01:26:36;44.40;;;8.57;;
30647;SDS011;17683;53.360;9.736;2024-01-25T01:29:02;41.30;;;7.35;;
30647;SDS011;17683;53.360;9.736;2024-01-25T01:31:28;49.60;;;7.63;;
30647;SDS011;17683;53.360;9.736;2024-01-25T01:33:54;41.33;;;9.48;;
30647;SDS011;17683;53.360;9.736;2024-01-25T01:36:20;34.05;;;6.90;;
30647;SDS011;17683;53.360;9.736;2024-01-25T01:38:46;41.20;;;7.35;;
30647;SDS011;17683;53.360;9.736;2024-01-25T01:41:11;40.08;;;8.57;;
30647;SDS011;17683;53.360;9.736;2024-01-25T01:43:38;41.88;;;7.82;;
30647;SDS011;17683;53.360;9.736;2024-01-25T01:46:04;30.38;;;6.90;;
30647;SDS011;17683;53.360;9.736;2024-01-25T01:48:40;44.88;;;7.38;;
30647;SDS011;17683;53.360;9.736;2024-01-25T01:51:06;52.47;;;6.88;;
30647;SDS011;17683;53.360;9.736;2024-01-25T01:53:33;49.42;;;10.50;;
30647;SDS011;17683;53.360;9.736;2024-01-25T01:56:01;43.83;;;7.80;;
30647;SDS011;17683;53.360;9.736;2024-01-25T01:58:27;45.95;;;7.32;;
30647;SDS011;17683;53.360;9.736;2024-01-25T02:00:53;40.85;;;7.18;;
30647;SDS011;17683;53.360;9.736;2024-01-25T02:03:21;48.47;;;8.63;;
30647;SDS011;17683;53.360;9.736;2024-01-25T02:05:47;43.42;;;7.32;;
30647;SDS011;17683;53.360;9.736;2024-01-25T02:08:13;39.28;;;7.25;;
30647;SDS011;17683;53.360;9.736;2024-01-25T02:10:40;42.30;;;7.45;;
30647;SDS011;17683;53.360;9.736;2024-01-25T02:13:05;42.60;;;8.25;;
30647;SDS011;17683;53.360;9.736;2024-01-25T02:15:31;44.95;;;7.20;;
30647;SDS011;17683;53.360;9.736;2024-01-25T02:17:57;35.75;;;7.20;;
30647;SDS011;17683;53.360;9.736;2024-01-25T02:20:24;43.08;;;7.78;;
30647;SDS011;17683;53.360;9.736;2024-01-25T02:22:50;42.72;;;8.05;;
30647;SDS011;17683;53.360;9.736;2024-01-25T02:25:15;47.50;;;7.72;;
30647;SDS011;17683;53.360;9.736;2024-01-25T02:27:41;48.03;;;8.43;;
30647;SDS011;17683;53.360;9.736;2024-01-25T02:30:07;38.50;;;7.22;;
30647;SDS011;17683;53.360;9.736;2024-01-25T02:32:33;34.42;;;6.80;;
30647;SDS011;17683;53.360;9.736;2024-01-25T02:34:59;51.65;;;8.30;;
30647;SDS011;17683;53.360;9.736;2024-01-25T02:37:25;40.25;;;7.53;;
30647;SDS011;17683;53.360;9.736;2024-01-25T02:39:51;39.22;;;7.07;;
30647;SDS011;17683;53.360;9.736;2024-01-25T02:42:18;42.05;;;6.90;;
30647;SDS011;17683;53.360;9.736;2024-01-25T02:44:44;33.70;;;7.57;;
30647;SDS011;17683;53.360;9.736;2024-01-25T02:47:09;36.53;;;6.70;;
30647;SDS011;17683;53.360;9.736;2024-01-25T02:49:35;42.67;;;7.88;;
30647;SDS011;17683;53.360;9.736;2024-01-25T02:52:01;36.83;;;6.40;;
30647;SDS011;17683;53.360;9.736;2024-01-25T02:54:28;38.72;;;8.02;;
30647;SDS011;17683;53.360;9.736;2024-01-25T02:56:53;35.20;;;6.93;;
30647;SDS011;17683;53.360;9.736;2024-01-25T02:59:19;50.28;;;7.78;;
30647;SDS011;17683;53.360;9.736;2024-01-25T03:01:45;47.72;;;9.80;;
30647;SDS011;17683;53.360;9.736;2024-01-25T03:04:11;55.28;;;7.65;;
30647;SDS011;17683;53.360;9.736;2024-01-25T03:06:37;41.42;;;7.30;;
30647;SDS011;17683;53.360;9.736;2024-01-25T03:09:03;40.63;;;7.22;;
30647;SDS011;17683;53.360;9.736;2024-01-25T03:11:32;33.65;;;6.88;;
30647;SDS011;17683;53.360;9.736;2024-01-25T03:13:57;30.77;;;6.38;;
30647;SDS011;17683;53.360;9.736;2024-01-25T03:16:23;41.35;;;7.45;;
30647;SDS011;17683;53.360;9.736;2024-01-25T03:18:49;40.22;;;7.15;;
30647;SDS011;17683;53.360;9.736;2024-01-25T03:21:15;40.50;;;7.68;;
30647;SDS011;17683;53.360;9.736;2024-01-25T03:23:40;38.10;;;7.22;;
30647;SDS011;17683;53.360;9.736;2024-01-25T03:26:06;36.03;;;7.60;;
30647;SDS011;17683;53.360;9.736;2024-01-25T03:28:35;46.17;;;8.80;;
30647;SDS011;17683;53.360;9.736;2024-01-25T03:31:02;42.40;;;7.88;;
30647;SDS011;17683;53.360;9.736;2024-01-25T03:33:28;35.05;;;6.75;;
30647;SDS011;17683;53.360;9.736;2024-01-25T03:35:54;31.30;;;5.95;;
30647;SDS011;17683;53.360;9.736;2024-01-25T03:38:20;33.25;;;6.57;;
30647;SDS011;17683;53.360;9.736;2024-01-25T03:40:45;30.75;;;6.00;;
30647;SDS011;17683;53.360;9.736;2024-01-25T03:43:12;42.33;;;8.30;;
30647;SDS011;17683;53.360;9.736;2024-01-25T03:45:38;35.85;;;6.75;;
30647;SDS011;17683;53.360;9.736;2024-01-25T03:48:04;34.78;;;6.15;;
30647;SDS011;17683;53.360;9.736;2024-01-25T03:50:30;33.78;;;6.68;;
30647;SDS011;17683;53.360;9.736;2024-01-25T03:52:55;45.17;;;7.55;;
30647;SDS011;17683;53.360;9.736;2024-01-25T03:55:21;34.75;;;6.15;;
30647;SDS011;17683;53.360;9.736;2024-01-25T03:57:47;51.75;;;7.63;;
30647;SDS011;17683;53.360;9.736;2024-01-25T04:00:13;45.22;;;8.10;;
30647;SDS011;17683;53.360;9.736;2024-01-25T04:02:39;36.83;;;7.45;;
30647;SDS011;17683;53.360;9.736;2024-01-25T04:05:05;40.88;;;6.80;;
30647;SDS011;17683;53.360;9.736;2024-01-25T04:07:30;37.72;;;7.75;;
30647;SDS011;17683;53.360;9.736;2024-01-25T04:09:56;37.85;;;7.00;;
30647;SDS011;17683;53.360;9.736;2024-01-25T04:12:22;42.10;;;6.40;;
30647;SDS011;17683;53.360;9.736;2024-01-25T04:14:49;38.88;;;6.68;;
30647;SDS011;17683;53.360;9.736;2024-01-25T04:17:14;43.53;;;7.35;;
30647;SDS011;17683;53.360;9.736;2024-01-25T04:19:40;41.72;;;8.32;;
30647;SDS011;17683;53.360;9.736;2024-01-25T04:22:06;36.97;;;8.90;;
30647;SDS011;17683;53.360;9.736;2024-01-25T04:24:31;35.40;;;7.25;;
30647;SDS011;17683;53.360;9.736;2024-01-25T04:26:57;33.30;;;7.22;;
30647;SDS011;17683;53.360;9.736;2024-01-25T04:29:23;38.88;;;7.68;;
30647;SDS011;17683;53.360;9.736;2024-01-25T04:31:48;32.78;;;6.78;;
30647;SDS011;17683;53.360;9.736;2024-01-25T04:34:15;42.83;;;7.47;;
30647;SDS011;17683;53.360;9.736;2024-01-25T04:36:41;32.33;;;5.28;;
30647;SDS011;17683;53.360;9.736;2024-01-25T04:39:07;39.50;;;6.72;;
30647;SDS011;17683;53.360;9.736;2024-01-25T04:41:33;39.08;;;7.55;;
30647;SDS011;17683;53.360;9.736;2024-01-25T04:43:58;40.45;;;8.25;;
30647;SDS011;17683;53.360;9.736;2024-01-25T04:46:24;49.25;;;7.47;;
30647;SDS011;17683;53.360;9.736;2024-01-25T04:48:50;45.53;;;7.97;;
30647;SDS011;17683;53.360;9.736;2024-01-25T04:51:16;47.00;;;6.93;;
30647;SDS011;17683;53.360;9.736;2024-01-25T04:53:42;41.30;;;6.45;;
30647;SDS011;17683;53.360;9.736;2024-01-25T04:56:08;31.42;;;7.13;;
30647;SDS011;17683;53.360;9.736;2024-01-25T04:58:34;38.75;;;7.82;;
30647;SDS011;17683;53.360;9.736;2024-01-25T05:01:00;37.13;;;6.70;;
30647;SDS011;17683;53.360;9.736;2024-01-25T05:03:26;43.55;;;7.30;;
30647;SDS011;17683;53.360;9.736;2024-01-25T05:05:51;49.28;;;8.52;;
30647;SDS011;17683;53.360;9.736;2024-01-25T05:08:17;41.80;;;7.13;;
30647;SDS011;17683;53.360;9.736;2024-01-25T05:10:43;41.00;;;7.10;;
30647;SDS011;17683;53.360;9.736;2024-01-25T05:13:09;39.00;;;6.35;;
30647;SDS011;17683;53.360;9.736;2024-01-25T05:15:35;36.25;;;6.30;;
30647;SDS011;17683;53.360;9.736;2024-01-25T05:18:04;45.33;;;6.57;;
30647;SDS011;17683;53.360;9.736;2024-01-25T05:20:30;29.92;;;5.72;;
30647;SDS011;17683;53.360;9.736;2024-01-25T05:23:02;37.20;;;6.20;;
30647;SDS011;17683;53.360;9.736;2024-01-25T05:25:28;49.88;;;7.95;;
30647;SDS011;17683;53.360;9.736;2024-01-25T05:27:55;36.97;;;6.22;;
30647;SDS011;17683;53.360;9.736;2024-01-25T05:30:21;35.97;;;7.60;;
30647;SDS011;17683;53.360;9.736;2024-01-25T05:32:47;30.58;;;7.35;;
30647;SDS011;17683;53.360;9.736;2024-01-25T05:35:18;44.45;;;8.68;;
30647;SDS011;17683;53.360;9.736;2024-01-25T05:37:44;45.03;;;7.78;;
30647;SDS011;17683;53.360;9.736;2024-01-25T05:40:10;50.80;;;9.07;;
30647;SDS011;17683;53.360;9.736;2024-01-25T05:42:36;40.97;;;6.70;;
30647;SDS011;17683;53.360;9.736;2024-01-25T05:45:02;40.05;;;6.97;;
30647;SDS011;17683;53.360;9.736;2024-01-25T05:47:28;37.53;;;7.82;;
30647;SDS011;17683;53.360;9.736;2024-01-25T05:49:55;27.83;;;5.93;;
30647;SDS011;17683;53.360;9.736;2024-01-25T05:52:21;33.35;;;6.20;;
30647;SDS011;17683;53.360;9.736;2024-01-25T05:54:49;32.03;;;6.15;;
30647;SDS011;17683;53.360;9.736;2024-01-25T05:57:15;45.58;;;7.72;;
30647;SDS011;17683;53.360;9.736;2024-01-25T05:59:42;36.20;;;6.63;;
30647;SDS011;17683;53.360;9.736;2024-01-25T06:02:07;48.53;;;7.25;;
30647;SDS011;17683;53.360;9.736;2024-01-25T06:04:34;32.90;;;6.18;;
30647;SDS011;17683;53.360;9.736;2024-01-25T06:07:00;34.67;;;6.28;;
30647;SDS011;17683;53.360;9.736;2024-01-25T06:09:25;34.72;;;6.10;;
30647;SDS011;17683;53.360;9.736;2024-01-25T06:11:51;38.40;;;8.25;;
30647;SDS011;17683;53.360;9.736;2024-01-25T06:14:17;45.17;;;8.43;;
30647;SDS011;17683;53.360;9.736;2024-01-25T06:16:44;38.92;;;6.82;;
30647;SDS011;17683;53.360;9.736;2024-01-25T06:19:10;46.28;;;6.90;;
30647;SDS011;17683;53.360;9.736;2024-01-25T06:21:36;38.30;;;5.97;;
30647;SDS011;17683;53.360;9.736;2024-01-25T06:24:03;36.13;;;6.97;;
30647;SDS011;17683;53.360;9.736;2024-01-25T06:26:32;44.42;;;9.07;;
30647;SDS011;17683;53.360;9.736;2024-01-25T06:28:58;45.17;;;7.50;;
30647;SDS011;17683;53.360;9.736;2024-01-25T06:31:24;42.83;;;6.65;;
30647;SDS011;17683;53.360;9.736;2024-01-25T06:33:51;29.88;;;6.05;;
30647;SDS011;17683;53.360;9.736;2024-01-25T06:36:20;39.40;;;6.95;;
30647;SDS011;17683;53.360;9.736;2024-01-25T06:38:46;35.67;;;7.25;;
30647;SDS011;17683;53.360;9.736;2024-01-25T06:41:12;48.80;;;7.70;;
30647;SDS011;17683;53.360;9.736;2024-01-25T06:43:38;38.53;;;6.60;;
30647;SDS011;17683;53.360;9.736;2024-01-25T06:46:05;41.50;;;6.70;;
30647;SDS011;17683;53.360;9.736;2024-01-25T06:48:31;43.13;;;6.72;;
30647;SDS011;17683;53.360;9.736;2024-01-25T06:50:58;33.63;;;6.50;;
30647;SDS011;17683;53.360;9.736;2024-01-25T06:53:23;40.15;;;6.78;;
30647;SDS011;17683;53.360;9.736;2024-01-25T06:55:49;42.22;;;7.57;;
30647;SDS011;17683;53.360;9.736;2024-01-25T06:58:15;34.25;;;6.78;;
30647;SDS011;17683;53.360;9.736;2024-01-25T07:00:40;31.80;;;7.38;;
30647;SDS011;17683;53.360;9.736;2024-01-25T07:03:07;40.70;;;7.75;;
30647;SDS011;17683;53.360;9.736;2024-01-25T07:05:33;48.72;;;7.43;;
30647;SDS011;17683;53.360;9.736;2024-01-25T07:08:00;33.70;;;5.63;;
30647;SDS011;17683;53.360;9.736;2024-01-25T07:10:27;38.08;;;5.72;;
30647;SDS011;17683;53.360;9.736;2024-01-25T07:12:52;43.35;;;7.93;;
30647;SDS011;17683;53.360;9.736;2024-01-25T07:15:19;34.45;;;6.85;;
30647;SDS011;17683;53.360;9.736;2024-01-25T07:17:45;39.00;;;6.97;;
30647;SDS011;17683;53.360;9.736;2024-01-25T07:20:11;38.03;;;7.03;;
30647;SDS011;17683;53.360;9.736;2024-01-25T07:22:37;45.83;;;7.15;;
30647;SDS011;17683;53.360;9.736;2024-01-25T07:25:03;36.50;;;7.20;;
30647;SDS011;17683;53.360;9.736;2024-01-25T07:27:29;38.53;;;5.90;;
30647;SDS011;17683;53.360;9.736;2024-01-25T07:29:55;47.13;;;8.15;;
30647;SDS011;17683;53.360;9.736;2024-01-25T07:32:21;37.83;;;7.07;;
30647;SDS011;17683;53.360;9.736;2024-01-25T07:34:49;36.83;;;5.75;;
30647;SDS011;17683;53.360;9.736;2024-01-25T07:37:15;35.60;;;5.38;;
30647;SDS011;17683;53.360;9.736;2024-01-25T07:39:41;35.78;;;6.05;;
30647;SDS011;17683;53.360;9.736;2024-01-25T07:42:07;32.10;;;5.75;;
30647;SDS011;17683;53.360;9.736;2024-01-25T07:44:32;34.22;;;6.15;;
30647;SDS011;17683;53.360;9.736;2024-01-25T07:46:58;37.20;;;7.15;;
30647;SDS011;17683;53.360;9.736;2024-01-25T07:49:24;39.03;;;6.28;;
30647;SDS011;17683;53.360;9.736;2024-01-25T07:51:50;43.25;;;7.00;;
30647;SDS011;17683;53.360;9.736;2024-01-25T07:54:19;38.88;;;8.10;;
30647;SDS011;17683;53.360;9.736;2024-01-25T07:56:45;31.08;;;6.38;;
30647;SDS011;17683;53.360;9.736;2024-01-25T07:59:11;33.25;;;6.78;;
30647;SDS011;17683;53.360;9.736;2024-01-25T08:01:37;30.45;;;7.15;;
30647;SDS011;17683;53.360;9.736;2024-01-25T08:04:03;30.83;;;6.25;;
30647;SDS011;17683;53.360;9.736;2024-01-25T08:06:32;30.30;;;6.10;;
30647;SDS011;17683;53.360;9.736;2024-01-25T08:08:58;41.97;;;7.07;;
30647;SDS011;17683;53.360;9.736;2024-01-25T08:11:24;35.97;;;6.30;;
30647;SDS011;17683;53.360;9.736;2024-01-25T08:13:50;39.53;;;6.68;;
30647;SDS011;17683;53.360;9.736;2024-01-25T08:16:17;45.45;;;7.10;;
30647;SDS011;17683;53.360;9.736;2024-01-25T08:18:46;35.08;;;5.88;;
30647;SDS011;17683;53.360;9.736;2024-01-25T08:21:12;32.92;;;6.18;;
30647;SDS011;17683;53.360;9.736;2024-01-25T08:23:38;30.17;;;5.65;;
30647;SDS011;17683;53.360;9.736;2024-01-25T08:26:05;32.28;;;5.65;;
30647;SDS011;17683;53.360;9.736;2024-01-25T08:28:34;52.55;;;6.25;;
30647;SDS011;17683;53.360;9.736;2024-01-25T08:31:08;29.90;;;6.40;;
30647;SDS011;17683;53.360;9.736;2024-01-25T08:33:34;35.20;;;6.47;;
30647;SDS011;17683;53.360;9.736;2024-01-25T08:36:00;27.73;;;5.25;;
30647;SDS011;17683;53.360;9.736;2024-01-25T08:38:26;38.22;;;5.88;;
30647;SDS011;17683;53.360;9.736;2024-01-25T08:40:52;29.02;;;6.80;;
30647;SDS011;17683;53.360;9.736;2024-01-25T08:43:17;30.40;;;6.30;;
30647;SDS011;17683;53.360;9.736;2024-01-25T08:45:44;35.92;;;7.28;;
30647;SDS011;17683;53.360;9.736;2024-01-25T08:48:09;55.55;;;7.70;;
30647;SDS011;17683;53.360;9.736;2024-01-25T08:50:35;34.22;;;6.00;;
30647;SDS011;17683;53.360;9.736;2024-01-25T08:53:01;35.58;;;6.72;;
30647;SDS011;17683;53.360;9.736;2024-01-25T08:55:27;34.85;;;5.55;;
30647;SDS011;17683;53.360;9.736;2024-01-25T08:57:53;34.95;;;5.75;;
30647;SDS011;17683;53.360;9.736;2024-01-25T09:00:19;35.95;;;7.00;;
30647;SDS011;17683;53.360;9.736;2024-01-25T09:02:45;36.58;;;6.20;;
30647;SDS011;17683;53.360;9.736;2024-01-25T09:05:11;32.95;;;6.65;;
30647;SDS011;17683;53.360;9.736;2024-01-25T09:07:37;40.17;;;6.88;;
30647;SDS011;17683;53.360;9.736;2024-01-25T09:10:03;38.35;;;8.13;;
30647;SDS011;17683;53.360;9.736;2024-01-25T09:12:30;35.15;;;5.88;;
30647;SDS011;17683;53.360;9.736;2024-01-25T09:14:56;43.55;;;6.03;;
30647;SDS011;17683;53.360;9.736;2024-01-25T09:17:21;50.55;;;9.07;;
30647;SDS011;17683;53.360;9.736;2024-01-25T09:19:50;35.42;;;6.32;;
30647;SDS011;17683;53.360;9.736;2024-01-25T09:22:17;30.50;;;6.15;;
30647;SDS011;17683;53.360;9.736;2024-01-25T09:24:45;39.47;;;7.55;;
30647;SDS011;17683;53.360;9.736;2024-01-25T09:27:11;37.85;;;7.28;;
30647;SDS011;17683;53.360;9.736;2024-01-25T09:29:38;36.33;;;6.00;;
30647;SDS011;17683;53.360;9.736;2024-01-25T09:32:07;30.90;;;6.60;;
30647;SDS011;17683;53.360;9.736;2024-01-25T09:34:37;36.85;;;7.45;;
30647;SDS011;17683;53.360;9.736;2024-01-25T09:37:04;30.17;;;6.45;;
30647;SDS011;17683;53.360;9.736;2024-01-25T09:39:33;40.15;;;6.30;;
30647;SDS011;17683;53.360;9.736;2024-01-25T09:42:00;41.47;;;6.70;;
30647;SDS011;17683;53.360;9.736;2024-01-25T09:44:28;39.33;;;7.07;;
30647;SDS011;17683;53.360;9.736;2024-01-25T09:46:54;34.13;;;7.03;;
30647;SDS011;17683;53.360;9.736;2024-01-25T09:49:20;45.45;;;6.82;;
30647;SDS011;17683;53.360;9.736;2024-01-25T09:51:46;31.77;;;6.25;;
30647;SDS011;17683;53.360;9.736;2024-01-25T09:54:15;37.15;;;6.38;;
30647;SDS011;17683;53.360;9.736;2024-01-25T09:56:42;40.90;;;6.00;;
30647;SDS011;17683;53.360;9.736;2024-01-25T09:59:08;29.70;;;5.85;;
30647;SDS011;17683;53.360;9.736;2024-01-25T10:01:34;37.70;;;7.80;;
30647;SDS011;17683;53.360;9.736;2024-01-25T10:04:00;30.90;;;6.78;;
30647;SDS011;17683;53.360;9.736;2024-01-25T10:06:26;38.53;;;6.22;;
30647;SDS011;17683;53.360;9.736;2024-01-25T10:08:53;37.85;;;6.82;;
30647;SDS011;17683;53.360;9.736;2024-01-25T10:11:19;41.70;;;6.97;;
30647;SDS011;17683;53.360;9.736;2024-01-25T10:13:46;23.42;;;5.97;;
30647;SDS011;17683;53.360;9.736;2024-01-25T10:16:18;30.55;;;5.65;;
30647;SDS011;17683;53.360;9.736;2024-01-25T10:18:47;39.15;;;8.27;;
30647;SDS011;17683;53.360;9.736;2024-01-25T10:21:14;36.63;;;8.38;;
30647;SDS011;17683;53.360;9.736;2024-01-25T10:23:41;41.53;;;8.20;;
30647;SDS011;17683;53.360;9.736;2024-01-25T10:26:10;30.63;;;5.25;;
30647;SDS011;17683;53.360;9.736;2024-01-25T10:28:36;31.48;;;6.03;;
30647;SDS011;17683;53.360;9.736;2024-01-25T10:31:02;28.02;;;6.25;;
30647;SDS011;17683;53.360;9.736;2024-01-25T10:33:32;33.17;;;6.40;;
30647;SDS011;17683;53.360;9.736;2024-01-25T10:36:02;31.25;;;5.95;;
30647;SDS011;17683;53.360;9.736;2024-01-25T10:38:32;32.40;;;6.32;;
30647;SDS011;17683;53.360;9.736;2024-01-25T10:41:03;29.08;;;6.80;;
30647;SDS011;17683;53.360;9.736;2024-01-25T10:43:33;29.42;;;6.07;;
30647;SDS011;17683;53.360;9.736;2024-01-25T10:45:59;44.08;;;8.45;;
30647;SDS011;17683;53.360;9.736;2024-01-25T10:48:26;32.80;;;5.10;;
30647;SDS011;17683;53.360;9.736;2024-01-25T10:50:53;34.28;;;6.35;;
30647;SDS011;17683;53.360;9.736;2024-01-25T10:53:19;30.13;;;6.32;;
30647;SDS011;17683;53.360;9.736;2024-01-25T10:55:46;31.95;;;7.22;;
30647;SDS011;17683;53.360;9.736;2024-01-25T10:58:15;40.35;;;6.43;;
30647;SDS011;17683;53.360;9.736;2024-01-25T11:00:50;30.70;;;5.82;;
30647;SDS011;17683;53.360;9.736;2024-01-25T11:03:18;47.25;;;7.88;;
30647;SDS011;17683;53.360;9.736;2024-01-25T11:05:45;31.55;;;5.55;;
30647;SDS011;17683;53.360;9.736;2024-01-25T11:08:19;34.35;;;5.70;;
30647;SDS011;17683;53.360;9.736;2024-01-25T11:10:51;40.50;;;6.88;;
30647;SDS011;17683;53.360;9.736;2024-01-25T11:13:26;24.77;;;4.93;;
30647;SDS011;17683;53.360;9.736;2024-01-25T11:15:52;30.02;;;6.30;;
30647;SDS011;17683;53.360;9.736;2024-01-25T11:18:24;28.33;;;5.05;;
30647;SDS011;17683;53.360;9.736;2024-01-25T11:20:51;22.85;;;4.82;;
30647;SDS011;17683;53.360;9.736;2024-01-25T11:23:17;31.67;;;5.25;;
30647;SDS011;17683;53.360;9.736;2024-01-25T11:25:46;35.25;;;6.00;;
30647;SDS011;17683;53.360;9.736;2024-01-25T11:28:14;30.45;;;5.80;;
30647;SDS011;17683;53.360;9.736;2024-01-25T11:30:41;39.22;;;6.85;;
30647;SDS011;17683;53.360;9.736;2024-01-25T11:33:07;37.90;;;5.97;;
30647;SDS011;17683;53.360;9.736;2024-01-25T11:35:34;39.92;;;6.25;;
30647;SDS011;17683;53.360;9.736;2024-01-25T11:38:01;33.10;;;6.40;;
30647;SDS011;17683;53.360;9.736;2024-01-25T11:40:27;37.03;;;5.40;;
30647;SDS011;17683;53.360;9.736;2024-01-25T11:42:56;36.47;;;6.55;;
30647;SDS011;17683;53.360;9.736;2024-01-25T11:45:22;33.50;;;7.00;;
30647;SDS011;17683;53.360;9.736;2024-01-25T11:47:49;27.52;;;5.82;;
30647;SDS011;17683;53.360;9.736;2024-01-25T11:50:15;28.60;;;5.88;;
30647;SDS011;17683;53.360;9.736;2024-01-25T11:52:44;38.28;;;6.28;;
30647;SDS011;17683;53.360;9.736;2024-01-25T11:55:13;36.10;;;5.95;;
30647;SDS011;17683;53.360;9.736;2024-01-25T11:57:39;25.90;;;5.35;;
30647;SDS011;17683;53.360;9.736;2024-01-25T12:00:09;28.40;;;6.65;;
30647;SDS011;17683;53.360;9.736;2024-01-25T12:02:40;31.63;;;5.68;;
30647;SDS011;17683;53.360;9.736;2024-01-25T12:05:06;28.48;;;6.00;;
30647;SDS011;17683;53.360;9.736;2024-01-25T12:07:35;35.42;;;6.55;;
30647;SDS011;17683;53.360;9.736;2024-01-25T12:12:32;28.98;;;4.90;;
30647;SDS011;17683;53.360;9.736;2024-01-25T12:14:58;24.65;;;6.28;;
30647;SDS011;17683;53.360;9.736;2024-01-25T12:17:27;31.13;;;5.93;;
30647;SDS011;17683;53.360;9.736;2024-01-25T12:19:55;32.10;;;5.55;;
30647;SDS011;17683;53.360;9.736;2024-01-25T12:22:21;33.13;;;5.32;;
30647;SDS011;17683;53.360;9.736;2024-01-25T12:24:47;41.22;;;7.53;;
30647;SDS011;17683;53.360;9.736;2024-01-25T12:27:17;33.22;;;5.25;;
30647;SDS011;17683;53.360;9.736;2024-01-25T12:29:43;24.42;;;4.75;;
30647;SDS011;17683;53.360;9.736;2024-01-25T12:32:09;27.88;;;6.18;;
30647;SDS011;17683;53.360;9.736;2024-01-25T12:34:35;25.50;;;6.30;;
30647;SDS011;17683;53.360;9.736;2024-01-25T12:37:02;31.10;;;6.22;;
30647;SDS011;17683;53.360;9.736;2024-01-25T12:39:29;43.17;;;5.70;;
30647;SDS011;17683;53.360;9.736;2024-01-25T12:41:55;35.15;;;8.07;;
30647;SDS011;17683;53.360;9.736;2024-01-25T12:44:24;30.60;;;5.30;;
30647;SDS011;17683;53.360;9.736;2024-01-25T12:46:50;23.92;;;4.97;;
30647;SDS011;17683;53.360;9.736;2024-01-25T12:49:19;28.50;;;5.18;;
30647;SDS011;17683;53.360;9.736;2024-01-25T12:51:47;21.92;;;5.43;;
30647;SDS011;17683;53.360;9.736;2024-01-25T12:54:13;20.98;;;4.30;;
30647;SDS011;17683;53.360;9.736;2024-01-25T12:56:39;24.00;;;5.55;;
30647;SDS011;17683;53.360;9.736;2024-01-25T12:59:05;25.95;;;6.15;;
30647;SDS011;17683;53.360;9.736;2024-01-25T13:01:31;30.52;;;6.70;;
30647;SDS011;17683;53.360;9.736;2024-01-25T13:03:57;22.52;;;4.97;;
30647;SDS011;17683;53.360;9.736;2024-01-25T13:06:23;28.10;;;6.00;;
30647;SDS011;17683;53.360;9.736;2024-01-25T13:08:49;23.80;;;4.85;;
30647;SDS011;17683;53.360;9.736;2024-01-25T13:11:15;31.35;;;5.97;;
30647;SDS011;17683;53.360;9.736;2024-01-25T13:13:41;25.88;;;4.53;;
30647;SDS011;17683;53.360;9.736;2024-01-25T13:16:08;21.17;;;4.55;;
30647;SDS011;17683;53.360;9.736;2024-01-25T13:18:34;24.75;;;4.05;;
30647;SDS011;17683;53.360;9.736;2024-01-25T13:21:00;22.95;;;5.43;;
30647;SDS011;17683;53.360;9.736;2024-01-25T13:23:26;18.95;;;4.82;;
30647;SDS011;17683;53.360;9.736;2024-01-25T13:25:52;23.77;;;4.30;;
30647;SDS011;17683;53.360;9.736;2024-01-25T13:28:18;21.33;;;5.57;;
30647;SDS011;17683;53.360;9.736;2024-01-25T13:30:44;21.42;;;4.10;;
30647;SDS011;17683;53.360;9.736;2024-01-25T13:33:10;23.42;;;4.38;;
30647;SDS011;17683;53.360;9.736;2024-01-25T13:35:35;18.58;;;3.53;;
30647;SDS011;17683;53.360;9.736;2024-01-25T13:38:02;21.73;;;3.83;;
30647;SDS011;17683;53.360;9.736;2024-01-25T13:40:28;11.15;;;2.95;;
30647;SDS011;17683;53.360;9.736;2024-01-25T13:42:54;26.15;;;4.60;;
30647;SDS011;17683;53.360;9.736;2024-01-25T13:45:20;24.60;;;4.20;;
30647;SDS011;17683;53.360;9.736;2024-01-25T13:47:46;25.35;;;4.03;;
30647;SDS011;17683;53.360;9.736;2024-01-25T13:50:12;29.73;;;4.85;;
30647;SDS011;17683;53.360;9.736;2024-01-25T13:52:41;24.85;;;4.65;;
30647;SDS011;17683;53.360;9.736;2024-01-25T13:55:07;18.13;;;3.28;;
30647;SDS011;17683;53.360;9.736;2024-01-25T13:57:33;23.83;;;4.93;;
30647;SDS011;17683;53.360;9.736;2024-01-25T13:59:58;19.33;;;4.53;;
30647;SDS011;17683;53.360;9.736;2024-01-25T14:02:24;25.83;;;5.45;;
30647;SDS011;17683;53.360;9.736;2024-01-25T14:04:51;21.27;;;4.68;;
30647;SDS011;17683;53.360;9.736;2024-01-25T14:07:17;17.88;;;4.57;;
30647;SDS011;17683;53.360;9.736;2024-01-25T14:09:42;23.02;;;4.35;;
30647;SDS011;17683;53.360;9.736;2024-01-25T14:12:08;24.10;;;4.72;;
30647;SDS011;17683;53.360;9.736;2024-01-25T14:14:36;23.42;;;4.90;;
30647;SDS011;17683;53.360;9.736;2024-01-25T14:17:02;22.27;;;4.82;;
30647;SDS011;17683;53.360;9.736;2024-01-25T14:19:28;24.85;;;4.25;;
30647;SDS011;17683;53.360;9.736;2024-01-25T14:21:54;25.75;;;5.07;;
30647;SDS011;17683;53.360;9.736;2024-01-25T14:24:20;26.30;;;4.22;;
30647;SDS011;17683;53.360;9.736;2024-01-25T14:26:46;19.73;;;3.80;;
30647;SDS011;17683;53.360;9.736;2024-01-25T14:29:12;27.50;;;4.80;;
30647;SDS011;17683;53.360;9.736;2024-01-25T14:31:38;15.98;;;3.97;;